createdAt,value
2023-03-23T15:59:04.511Z,100458.03
2023-03-23T16:01:31.672Z,100458.25
2023-03-23T16:04:10.482Z,100453.34
2023-03-23T16:06:40.432Z,100457.03
2023-03-23T16:09:10.206Z,100461.38
2023-03-23T16:11:37.233Z,100449.63
2023-03-23T16:14:08.145Z,100459.13
2023-03-23T16:16:39.354Z,100463.81
2023-03-23T16:19:06.967Z,100456.91
2023-03-23T16:21:35.114Z,100446.28
2023-03-23T16:24:01.792Z,100455.31
2023-03-23T16:26:28.531Z,100451.66
2023-03-23T16:29:06.127Z,100450.84
2023-03-23T16:31:40.849Z,100447.41
2023-03-23T16:34:08.754Z,100455.44
2023-03-23T16:36:35.969Z,100466.50
2023-03-23T16:39:02.955Z,100466.19
2023-03-23T16:41:29.621Z,100470.31
2023-03-23T16:43:56.295Z,100482.16
2023-03-23T16:46:23.020Z,100474.56
2023-03-23T16:48:49.601Z,100475.34
2023-03-23T16:51:16.457Z,100461.03
2023-03-23T16:53:43.126Z,100450.31
2023-03-23T16:56:48.056Z,100457.78
2023-03-23T16:59:15.440Z,100453.88
2023-03-23T17:01:43.242Z,100454.84
2023-03-23T17:04:10.441Z,100454.31
2023-03-23T17:06:37.390Z,100454.94
2023-03-23T17:09:04.231Z,100468.03
2023-03-23T17:11:30.766Z,100465.69
2023-03-23T17:13:57.299Z,100459.66
2023-03-23T17:16:24.005Z,100458.00
2023-03-23T17:18:50.660Z,100462.44
2023-03-23T17:21:17.207Z,100467.34
2023-03-23T17:23:43.985Z,100459.50
2023-03-23T17:26:10.735Z,100460.63
2023-03-23T17:28:37.390Z,100448.47
2023-03-23T17:31:06.267Z,100449.91
2023-03-23T17:33:32.908Z,100452.13
2023-03-23T17:35:59.700Z,100448.88
2023-03-23T17:38:27.096Z,100445.41
2023-03-23T17:41:00.381Z,100448.09
2023-03-23T17:43:27.488Z,100445.59
2023-03-23T17:45:54.075Z,100434.31
2023-03-23T17:48:21.682Z,100432.44
2023-03-23T17:50:49.661Z,100427.72
2023-03-23T17:53:18.861Z,100427.91
2023-03-23T17:55:46.618Z,100425.53
2023-03-23T17:58:13.389Z,100439.94
2023-03-23T18:03:34.695Z,100437.00
2023-03-23T18:06:03.695Z,100426.50
2023-03-23T18:08:31.809Z,100431.38
2023-03-23T18:10:58.681Z,100423.09
2023-03-23T18:13:26.961Z,100420.44
2023-03-23T18:15:54.868Z,100411.94
2023-03-23T18:18:22.283Z,100415.25
2023-03-23T18:23:58.838Z,100420.16
2023-03-23T18:26:27.305Z,100420.47
2023-03-23T18:28:56.206Z,100408.06
2023-03-23T18:31:23.204Z,100415.00
2023-03-23T18:33:53.938Z,100412.19
2023-03-23T18:36:23.817Z,100404.47
2023-03-23T18:38:50.939Z,100396.91
2023-03-23T18:41:18.898Z,100396.91
2023-03-23T18:43:46.402Z,100412.34
2023-03-23T18:49:07.626Z,100397.03
2023-03-23T18:51:34.290Z,100402.72
2023-03-23T18:54:00.987Z,100391.41
2023-03-23T18:56:27.620Z,100385.50
2023-03-23T18:58:54.461Z,100388.28
2023-03-23T19:01:21.486Z,100375.69
2023-03-23T19:03:48.786Z,100380.25
2023-03-23T19:06:19.530Z,100381.22
2023-03-23T19:08:48.089Z,100373.53
2023-03-23T19:11:15.695Z,100374.19
2023-03-23T19:13:54.014Z,100372.19
2023-03-23T19:16:25.452Z,100377.84
2023-03-23T19:18:52.100Z,100370.00
2023-03-23T19:24:12.948Z,100355.69
2023-03-23T19:26:42.414Z,100354.59
2023-03-23T19:31:45.041Z,100342.06
2023-03-23T19:34:13.828Z,100349.19
2023-03-23T19:36:41.070Z,100337.09
2023-03-23T19:39:08.917Z,100341.53
2023-03-23T19:41:36.543Z,100329.28
2023-03-23T19:44:04.028Z,100331.03
2023-03-23T19:46:31.551Z,100328.03
2023-03-23T19:48:59.419Z,100333.25
2023-03-23T19:51:27.587Z,100319.41
2023-03-23T19:53:57.489Z,100327.00
2023-03-23T19:56:25.274Z,100321.19
2023-03-23T19:58:52.073Z,100321.50
2023-03-23T20:01:19.156Z,100311.44
2023-03-23T20:03:46.916Z,100322.94
2023-03-23T20:06:15.233Z,100320.72
2023-03-23T20:08:45.874Z,100315.72
2023-03-23T20:11:17.041Z,100310.22
2023-03-23T20:13:44.906Z,100312.66
2023-03-23T20:16:11.802Z,100306.84
2023-03-23T20:18:38.521Z,100314.25
2023-03-23T20:21:09.375Z,100304.06
2023-03-23T20:23:36.860Z,100301.09
2023-03-23T20:26:09.403Z,100304.44
2023-03-23T20:28:36.284Z,100304.75
2023-03-23T20:31:16.759Z,100299.72
2023-03-23T20:33:46.472Z,100295.03
2023-03-23T20:36:13.405Z,100292.88
2023-03-23T20:38:42.700Z,100287.53
2023-03-23T20:41:12.554Z,100281.81
2023-03-23T20:43:41.136Z,100278.44
2023-03-23T20:46:09.977Z,100277.97
2023-03-23T20:48:38.610Z,100277.03
2023-03-23T20:51:08.134Z,100267.91
2023-03-23T20:53:35.490Z,100269.78
2023-03-23T20:56:05.442Z,100267.13
2023-03-23T20:58:33.270Z,100264.91
2023-03-23T21:01:03.073Z,100257.56
2023-03-23T21:03:32.124Z,100260.06
2023-03-23T21:05:59.124Z,100258.38
2023-03-23T21:08:25.725Z,100248.19
2023-03-23T21:10:52.383Z,100247.72
2023-03-23T21:13:18.884Z,100250.09
2023-03-23T21:15:45.942Z,100241.66
2023-03-23T21:18:13.060Z,100235.69
2023-03-23T21:20:40.610Z,100237.63
2023-03-23T21:23:07.746Z,100228.69
2023-03-23T21:25:37.305Z,100218.13
2023-03-23T21:28:06.865Z,100214.88
2023-03-23T21:30:33.540Z,100201.22
2023-03-23T21:33:00.227Z,100195.41
2023-03-23T21:35:26.831Z,100195.91
2023-03-23T21:37:53.796Z,100188.84
2023-03-23T21:40:21.756Z,100186.03
2023-03-23T21:42:49.555Z,100187.75
2023-03-23T21:45:23.788Z,100182.28
2023-03-23T21:47:50.845Z,100175.88
2023-03-23T21:50:17.814Z,100174.47
2023-03-23T21:52:44.514Z,100177.75
2023-03-23T21:55:12.542Z,100166.78
2023-03-23T21:57:40.064Z,100162.88
2023-03-23T22:00:09.540Z,100159.56
2023-03-23T22:02:36.609Z,100159.88
2023-03-23T22:05:03.441Z,100153.31
2023-03-23T22:07:33.244Z,100152.38
2023-03-23T22:10:00.311Z,100166.66
2023-03-23T22:12:27.589Z,100154.75
2023-03-23T22:14:54.176Z,100144.38
2023-03-23T22:17:20.770Z,100138.56
2023-03-23T22:19:49.644Z,100137.34
2023-03-23T22:22:16.206Z,100132.13
2023-03-23T22:24:42.780Z,100131.19
2023-03-23T22:27:09.291Z,100139.50
2023-03-23T22:29:35.878Z,100134.16
2023-03-23T22:32:02.473Z,100127.44
2023-03-23T22:34:29.466Z,100124.16
2023-03-23T22:36:56.573Z,100124.00
2023-03-23T22:39:23.375Z,100122.44
2023-03-23T22:41:50.076Z,100109.41
2023-03-23T22:44:20.454Z,100101.72
2023-03-23T22:46:47.345Z,100095.94
2023-03-23T22:49:14.424Z,100105.03
2023-03-23T22:54:35.689Z,100090.59
2023-03-23T22:57:02.246Z,100072.09
2023-03-23T22:59:28.987Z,100084.63
2023-03-23T23:01:55.745Z,100074.13
2023-03-23T23:04:22.543Z,100076.91
2023-03-23T23:06:49.081Z,100071.91
2023-03-23T23:09:15.733Z,100064.25
2023-03-23T23:11:42.397Z,100067.22
2023-03-23T23:14:09.642Z,100064.84
2023-03-23T23:16:36.370Z,100056.84
2023-03-23T23:19:03.411Z,100046.53
2023-03-23T23:21:30.098Z,100055.31
2023-03-23T23:23:56.759Z,100058.56
2023-03-23T23:26:23.984Z,100045.25
2023-03-23T23:28:51.142Z,100042.13
2023-03-23T23:31:26.191Z,100031.00
2023-03-23T23:33:55.364Z,100032.28
2023-03-23T23:36:22.153Z,100021.47
2023-03-23T23:38:49.626Z,100023.00
2023-03-23T23:41:16.516Z,100018.50
2023-03-23T23:43:43.200Z,100004.69
2023-03-23T23:46:09.947Z,100011.88
2023-03-23T23:48:36.560Z,100003.13
2023-03-23T23:51:03.142Z,100004.53
2023-03-23T23:53:31.910Z,100003.13
2023-03-23T23:56:03.497Z,99991.69
2023-03-23T23:58:30.813Z,99988.38
